Time;durP1;ratioP1;P1;durP2;ratioP2;P2;SDS_P1;SDS_P2;PMS_P1;PMS_P2;Temp;Humidity;BMP_temperature;BMP_pressure;BME280_temperature;BME280_humidity;BME280_pressure;Samples;Min_cycle;Max_cycle;Signal;HPM_P1;HPM_P2
2021/05/06 00:35:37;;;;;;;6.50;1.63;;;5.40;99.90;;;;;;13090657;22;20023;-46
2021/05/06 00:46:38;;;;;;;4.40;2.13;;;5.50;99.90;;;;;;13091721;22;20069;-46
2021/05/06 01:12:14;;;;;;;3.63;1.25;;;5.70;99.90;;;;;;13089926;22;20504;-46
2021/05/06 01:17:15;;;;;;;3.47;1.20;;;5.70;99.90;;;;;;13088906;22;20021;-46
2021/05/06 01:22:15;;;;;;;3.72;1.30;;;5.80;99.90;;;;;;13089641;22;20274;-46
2021/05/06 01:27:21;;;;;;;3.95;1.17;;;5.80;99.90;;;;;;13061519;22;20316;-46
2021/05/06 01:32:46;;;;;;;3.53;1.25;;;5.70;99.90;;;;;;13088273;22;20234;-46
2021/05/06 01:58:59;;;;;;;;;;;5.50;99.90;;;;;;13094127;22;20104;-46
2021/05/06 02:03:59;;;;;;;4.53;2.15;;;5.40;99.90;;;;;;13093578;22;20273;-46
2021/05/06 02:09:00;;;;;;;3.35;1.50;;;5.40;99.90;;;;;;13097949;22;20006;-46
2021/05/06 02:14:01;;;;;;;3.40;1.30;;;5.40;99.90;;;;;;13097574;22;20038;-46
2021/05/06 02:19:03;;;;;;;5.63;2.30;;;5.30;99.90;;;;;;13093706;22;20015;-46
2021/05/06 02:24:04;;;;;;;4.18;1.83;;;5.30;99.90;;;;;;13091017;22;20040;-46
2021/05/06 02:29:05;;;;;;;5.22;2.20;;;5.20;99.90;;;;;;13091968;22;20449;-46
2021/05/06 02:34:06;;;;;;;4.15;2.03;;;5.20;99.90;;;;;;13091908;22;20411;-46
2021/05/06 02:39:06;;;;;;;5.47;2.20;;;5.20;99.90;;;;;;13091179;22;20011;-46
2021/05/06 02:44:07;;;;;;;7.65;2.13;;;5.00;99.90;;;;;;13092714;22;20027;-46
2021/05/06 02:49:08;;;;;;;6.97;2.53;;;5.00;99.90;;;;;;13088694;22;20017;-46
2021/05/06 02:54:09;;;;;;;6.25;2.38;;;5.00;99.90;;;;;;13092581;22;20061;-46
2021/05/06 03:04:10;;;;;;;4.50;2.15;;;4.90;99.90;;;;;;13088689;22;20011;-46
2021/05/06 03:24:33;;;;;;;6.13;2.28;;;4.60;99.90;;;;;;13089862;22;20025;-46
2021/05/06 03:29:47;;;;;;;5.55;1.95;;;4.70;99.90;;;;;;13090292;22;20497;-46
2021/05/06 03:34:53;;;;;;;5.47;2.38;;;4.60;99.90;;;;;;13090585;22;20465;-46
2021/05/06 03:46:04;;;;;;;11.43;3.63;;;4.60;99.90;;;;;;13089179;22;20026;-46
2021/05/06 04:27:34;;;;;;;9.07;3.53;;;4.80;99.90;;;;;;13089478;22;20484;-46
2021/05/06 04:38:11;;;;;;;8.63;3.45;;;4.80;99.90;;;;;;13036328;22;20026;-46
2021/05/06 04:44:07;;;;;;;8.18;3.63;;;4.90;99.90;;;;;;13089005;22;20553;-46
2021/05/06 05:20:08;;;;;;;9.70;4.20;;;5.30;99.90;;;;;;13052908;22;20011;-46
2021/05/06 05:25:11;;;;;;;7.22;3.47;;;5.40;99.90;;;;;;13093886;22;20129;-46
2021/05/06 05:30:12;;;;;;;7.55;3.38;;;5.30;99.90;;;;;;13094368;22;20019;-46
2021/05/06 05:35:22;;;;;;;8.70;3.40;;;5.40;99.90;;;;;;13093059;22;20041;-46
2021/05/06 05:40:32;;;;;;;9.38;4.85;;;5.30;99.90;;;;;;13089519;22;20981;-46
2021/05/06 05:55:56;;;;;;;10.13;4.10;;;5.50;99.90;;;;;;13095940;22;20015;-46
2021/05/06 06:01:24;;;;;;;10.38;3.75;;;5.70;99.90;;;;;;13080725;22;20015;-46
2021/05/06 06:06:25;;;;;;;10.48;3.38;;;5.90;99.90;;;;;;13081200;22;20365;-46
2021/05/06 06:11:26;;;;;;;9.05;3.75;;;6.10;99.90;;;;;;13095805;22;20406;-47
2021/05/06 06:16:29;;;;;;;5.47;3.03;;;6.20;99.90;;;;;;13086028;22;20228;-47
2021/05/06 06:21:52;;;;;;;5.15;2.42;;;6.30;99.90;;;;;;13071070;22;20022;-47
2021/05/06 06:26:52;;;;;;;7.50;2.65;;;6.30;99.90;;;;;;13090478;22;20025;-47
2021/05/06 06:31:53;;;;;;;5.60;2.20;;;6.50;99.90;;;;;;13090483;22;20010;-46
2021/05/06 06:36:54;;;;;;;5.47;2.33;;;6.70;99.90;;;;;;13086194;22;20481;-47
2021/05/06 06:41:55;;;;;;;6.22;2.20;;;6.80;99.90;;;;;;13087019;22;20164;-46
2021/05/06 06:47:02;;;;;;;4.78;2.03;;;6.80;99.90;;;;;;13088743;22;20021;-46
2021/05/06 06:52:26;;;;;;;5.88;1.65;;;7.00;99.90;;;;;;13089449;22;20011;-46
2021/05/06 06:57:28;;;;;;;4.20;1.75;;;7.00;99.90;;;;;;13087976;22;20249;-47
2021/05/06 07:02:29;;;;;;;5.78;1.60;;;7.30;99.90;;;;;;13085616;22;20076;-47
2021/05/06 07:07:37;;;;;;;4.95;1.95;;;7.50;99.90;;;;;;13090386;22;20015;-47
2021/05/06 07:12:37;;;;;;;3.63;1.65;;;7.70;99.90;;;;;;13058411;22;20010;-47
2021/05/06 07:17:38;;;;;;;3.80;1.30;;;7.90;99.90;;;;;;13089606;22;20015;-47
2021/05/06 07:22:39;;;;;;;6.00;2.30;;;8.20;99.90;;;;;;13084586;22;20054;-47
2021/05/06 07:27:39;;;;;;;4.18;1.90;;;8.40;99.90;;;;;;13090411;22;20048;-47
2021/05/06 07:32:41;;;;;;;5.30;1.80;;;8.40;99.90;;;;;;13086900;22;20010;-47
2021/05/06 07:37:42;;;;;;;4.72;1.80;;;8.50;99.90;;;;;;13090524;22;20427;-47
2021/05/06 07:42:43;;;;;;;8.70;2.75;;;8.50;99.90;;;;;;13091382;22;20032;-47
2021/05/06 07:47:43;;;;;;;4.30;2.10;;;8.50;99.90;;;;;;13090466;22;20010;-47
2021/05/06 07:52:47;;;;;;;5.30;1.40;;;8.70;99.90;;;;;;13090339;22;20522;-47
2021/05/06 07:57:48;;;;;;;4.93;1.38;;;8.90;99.90;;;;;;13089756;22;20087;-47
2021/05/06 08:02:50;;;;;;;6.22;2.45;;;9.10;99.90;;;;;;13087660;22;20080;-47
2021/05/06 08:07:51;;;;;;;4.78;1.67;;;9.40;99.90;;;;;;13087364;22;20006;-47
2021/05/06 08:12:56;;;;;;;4.55;2.22;;;9.40;99.90;;;;;;13088733;22;20502;-47
2021/05/06 08:17:57;;;;;;;4.78;2.35;;;9.40;99.90;;;;;;13091390;22;19999;-47
2021/05/06 08:22:58;;;;;;;3.80;2.00;;;9.60;99.90;;;;;;13091613;22;20370;-47
2021/05/06 08:27:59;;;;;;;3.25;1.67;;;10.10;99.90;;;;;;13091486;22;20036;-47
2021/05/06 08:32:59;;;;;;;3.88;1.45;;;10.40;99.90;;;;;;13089706;22;20017;-47
2021/05/06 08:38:00;;;;;;;5.65;1.92;;;10.40;99.90;;;;;;13089028;22;20022;-47
2021/05/06 08:43:06;;;;;;;4.80;2.20;;;10.50;99.90;;;;;;13090729;22;20022;-47
2021/05/06 08:48:07;;;;;;;3.65;1.83;;;10.80;99.90;;;;;;13065783;22;20485;-47
2021/05/06 08:53:09;;;;;;;5.07;2.10;;;10.70;99.90;;;;;;13096883;22;20009;-47
2021/05/06 08:58:10;;;;;;;3.75;1.88;;;10.50;99.90;;;;;;13095957;22;20013;-47
2021/05/06 09:03:12;;;;;;;7.00;2.63;;;10.10;99.90;;;;;;13097189;22;20097;-46
2021/05/06 09:08:32;;;;;;;3.83;1.95;;;9.70;99.90;;;;;;13097838;22;20355;-47
2021/05/06 09:13:36;;;;;;;4.88;2.22;;;9.50;99.90;;;;;;13101201;22;20015;-47
2021/05/06 09:18:52;;;;;;;4.88;2.47;;;9.20;99.90;;;;;;13080522;22;20041;-47
2021/05/06 09:24:08;;;;;;;2.65;1.70;;;8.90;99.90;;;;;;13091289;22;20185;-47
2021/05/06 09:29:12;;;;;;;3.92;1.42;;;8.60;99.90;;;;;;13093026;22;20011;-46
2021/05/06 09:34:13;;;;;;;1.65;0.75;;;8.30;99.90;;;;;;13090307;22;20015;-47
2021/05/06 09:39:14;;;;;;;2.20;0.93;;;8.00;99.90;;;;;;13091168;22;20021;-46
2021/05/06 09:44:19;;;;;;;5.20;1.10;;;7.60;99.90;;;;;;13093181;22;20014;-46
2021/05/06 09:49:20;;;;;;;3.20;1.55;;;7.50;99.90;;;;;;13091359;22;20011;-47
2021/05/06 09:54:21;;;;;;;2.33;1.23;;;7.40;99.90;;;;;;13092764;22;20082;-47
2021/05/06 09:59:24;;;;;;;4.47;1.50;;;7.20;99.90;;;;;;13090824;22;20496;-47
2021/05/06 10:04:29;;;;;;;6.03;1.70;;;7.30;99.90;;;;;;13102902;22;20014;-47
2021/05/06 10:09:30;;;;;;;2.75;1.13;;;7.30;99.90;;;;;;13093420;22;20021;-47
2021/05/06 10:14:34;;;;;;;3.65;1.20;;;7.40;99.90;;;;;;13096192;22;20521;-47
2021/05/06 10:19:38;;;;;;;3.13;1.02;;;7.40;99.90;;;;;;13094887;22;20011;-47
2021/05/06 10:25:18;;;;;;;4.40;1.35;;;7.20;99.90;;;;;;13063330;22;20021;-47
2021/05/06 10:36:20;;;;;;;3.55;1.30;;;6.20;99.90;;;;;;13030932;22;20026;-84
2021/05/06 10:41:41;;;;;;;3.20;1.43;;;6.00;99.90;;;;;;13040923;22;20022;-83
2021/05/06 10:47:02;;;;;;;3.55;1.70;;;6.10;99.90;;;;;;12990684;22;20106;-84
2021/05/06 10:52:21;;;;;;;;;;;;;;;;;;;;;
2021/05/06 10:57:27;;;;;;;9.27;2.08;;;6.60;99.90;;;;;;13034386;22;20011;-82
2021/05/06 11:02:43;;;;;;;5.55;1.45;;;6.90;99.90;;;;;;13036029;22;20011;-82
2021/05/06 11:15:02;;;;;;;3.83;1.30;;;7.30;99.90;;;;;;13006810;22;20030;-83
2021/05/06 11:20:13;;;;;;;2.03;0.77;;;7.20;99.90;;;;;;13026142;22;20033;-82
2021/05/06 11:32:31;;;;;;;3.20;1.07;;;7.30;99.90;;;;;;12644212;23;20053;-83
2021/05/06 11:37:33;;;;;;;3.42;1.10;;;7.30;99.90;;;;;;12895664;22;20339;-49
2021/05/06 11:42:39;;;;;;;4.82;2.15;;;7.40;99.90;;;;;;12898372;22;20413;-49
2021/05/06 11:47:41;;;;;;;2.33;1.42;;;7.50;99.90;;;;;;12896016;22;20483;-49
2021/05/06 11:52:43;;;;;;;2.72;1.30;;;7.50;99.90;;;;;;12898849;22;20099;-49
2021/05/06 11:57:48;;;;;;;3.40;1.15;;;7.20;99.90;;;;;;12895187;22;20012;-50
2021/05/06 12:03:04;;;;;;;5.65;1.30;;;7.00;99.90;;;;;;12896687;22;20067;-49
2021/05/06 12:08:05;;;;;;;3.17;1.05;;;7.20;99.90;;;;;;12894093;22;20005;-50
2021/05/06 12:13:06;;;;;;;3.70;1.27;;;7.50;99.90;;;;;;12895908;22;20493;-50
2021/05/06 12:18:18;;;;;;;4.25;1.20;;;7.70;99.90;;;;;;12894890;22;20435;-50
2021/05/06 12:23:19;;;;;;;3.65;1.13;;;8.10;99.90;;;;;;12895108;22;20103;-50
2021/05/06 12:28:20;;;;;;;2.65;1.10;;;8.30;99.90;;;;;;12899693;22;20529;-50
2021/05/06 12:33:33;;;;;;;3.78;1.35;;;8.30;99.90;;;;;;12923951;22;20031;-50
2021/05/06 12:38:37;;;;;;;12.18;1.77;;;8.20;99.90;;;;;;12963744;22;20016;-50
2021/05/06 12:43:51;;;;;;;3.70;1.40;;;8.00;99.90;;;;;;12963271;22;20046;-50
2021/05/06 12:48:57;;;;;;;4.30;1.20;;;8.00;99.90;;;;;;12962192;22;20015;-50
2021/05/06 12:54:05;;;;;;;5.20;1.85;;;8.30;99.90;;;;;;12961223;22;20321;-50
2021/05/06 12:59:28;;;;;;;3.00;1.67;;;9.30;99.90;;;;;;12963977;22;20034;-50
2021/05/06 13:04:43;;;;;;;3.15;1.45;;;10.90;99.90;;;;;;12962802;22;20108;-51
2021/05/06 13:09:46;;;;;;;2.45;1.25;;;12.30;99.90;;;;;;12962478;22;20455;-50
2021/05/06 13:15:01;;;;;;;3.47;1.67;;;13.30;99.90;;;;;;12963182;22;20494;-50
2021/05/06 13:20:24;;;;;;;2.17;1.05;;;13.70;99.90;;;;;;12964085;22;20047;-50
2021/05/06 13:25:44;;;;;;;2.88;1.35;;;13.80;99.90;;;;;;12962425;22;20189;-50
2021/05/06 13:30:45;;;;;;;;;;;14.00;99.90;;;;;;12959115;22;20012;-50
2021/05/06 13:36:05;;;;;;;2.30;1.17;;;14.10;99.90;;;;;;12959756;22;19997;-50
2021/05/06 13:41:06;;;;;;;1.52;0.85;;;14.90;99.90;;;;;;12963989;22;20122;-50
2021/05/06 13:46:10;;;;;;;3.75;1.02;;;15.60;99.90;;;;;;12963316;22;20499;-50
2021/05/06 13:51:13;;;;;;;1.92;0.85;;;14.90;99.90;;;;;;12961840;22;20003;-50
2021/05/06 13:56:14;;;;;;;2.03;0.80;;;14.60;99.90;;;;;;12961398;22;20008;-49
2021/05/06 14:01:16;;;;;;;1.45;0.63;;;14.60;99.90;;;;;;12962995;22;20258;-49
2021/05/06 14:06:16;;;;;;;1.70;0.85;;;14.00;99.90;;;;;;12960961;22;20090;-50
2021/05/06 14:11:17;;;;;;;5.47;0.95;;;13.60;99.90;;;;;;12963376;22;20115;-49
2021/05/06 14:16:18;;;;;;;2.63;1.20;;;13.20;99.90;;;;;;12959997;22;20012;-49
2021/05/06 14:21:21;;;;;;;2.03;0.88;;;12.70;99.90;;;;;;12961666;22;20015;-49
2021/05/06 14:26:22;;;;;;;3.75;0.93;;;12.40;99.90;;;;;;12962656;22;20395;-49
2021/05/06 14:31:23;;;;;;;4.22;1.02;;;12.30;99.90;;;;;;12962117;22;20008;-49
2021/05/06 14:36:23;;;;;;;4.03;1.30;;;12.60;99.90;;;;;;12962031;22;20027;-49
2021/05/06 14:41:24;;;;;;;4.60;1.40;;;12.50;99.90;;;;;;12962051;22;20016;-49
2021/05/06 14:46:25;;;;;;;3.15;0.98;;;12.70;99.90;;;;;;12960712;22;20022;-49
2021/05/06 14:51:26;;;;;;;3.33;1.00;;;12.50;99.90;;;;;;12959751;22;20018;-48
2021/05/06 14:56:28;;;;;;;2.65;1.00;;;12.40;99.90;;;;;;12961998;22;20007;-49
2021/05/06 15:01:34;;;;;;;1.83;0.70;;;12.50;99.90;;;;;;12960422;22;20094;-49
2021/05/06 15:06:35;;;;;;;2.85;0.90;;;12.70;99.90;;;;;;12959518;22;20016;-49
2021/05/06 15:11:35;;;;;;;1.48;0.73;;;12.50;99.90;;;;;;12960802;22;20535;-49
2021/05/06 15:16:36;;;;;;;3.60;1.75;;;12.20;99.90;;;;;;12961166;22;20444;-48
2021/05/06 15:21:37;;;;;;;3.83;1.20;;;12.10;99.90;;;;;;12955549;22;20007;-49
2021/05/06 15:26:38;;;;;;;2.55;1.00;;;12.00;99.90;;;;;;12951080;22;20015;-49
2021/05/06 15:31:38;;;;;;;1.88;0.80;;;12.00;99.90;;;;;;12949053;22;20085;-49
2021/05/06 15:36:40;;;;;;;2.97;1.20;;;11.90;99.90;;;;;;12952614;22;20451;-49
2021/05/06 15:41:41;;;;;;;2.95;1.40;;;11.70;99.90;;;;;;12950720;22;20023;-49
2021/05/06 15:46:41;;;;;;;2.88;1.50;;;11.30;99.90;;;;;;12949393;22;20074;-49
2021/05/06 15:51:42;;;;;;;5.28;1.35;;;11.40;99.90;;;;;;12947601;22;20008;-49
2021/05/06 15:56:43;;;;;;;2.50;0.93;;;11.40;99.90;;;;;;12949212;22;20018;-49
2021/05/06 16:01:44;;;;;;;3.40;1.33;;;11.20;99.90;;;;;;12951239;22;20015;-49
2021/05/06 16:06:44;;;;;;;4.55;1.27;;;11.00;99.90;;;;;;12946006;22;20016;-48
2021/05/06 16:11:45;;;;;;;2.65;1.42;;;10.80;99.90;;;;;;12949175;22;20053;-48
2021/05/06 16:16:46;;;;;;;4.18;1.83;;;10.80;99.90;;;;;;12946115;22;20438;-49
2021/05/06 16:21:48;;;;;;;3.83;2.05;;;10.60;99.90;;;;;;12942305;22;20023;-48
2021/05/06 16:26:49;;;;;;;3.20;1.15;;;10.60;99.90;;;;;;12947194;22;20054;-49
2021/05/06 16:31:50;;;;;;;2.95;1.70;;;10.50;99.90;;;;;;12945472;22;20012;-49
2021/05/06 16:37:07;;;;;;;1.85;0.68;;;10.50;99.90;;;;;;12948125;22;20016;-49
2021/05/06 16:47:15;;;;;;;4.72;0.95;;;10.50;99.90;;;;;;12945467;22;20012;-49
2021/05/06 16:52:16;;;;;;;2.70;1.05;;;10.50;99.90;;;;;;12948668;22;20007;-49
2021/05/06 16:57:17;;;;;;;2.60;1.05;;;10.20;99.90;;;;;;12949959;22;20007;-49
2021/05/06 17:02:18;;;;;;;3.08;1.27;;;10.00;99.90;;;;;;12951720;22;20096;-48
2021/05/06 17:07:18;;;;;;;5.50;1.48;;;9.60;99.90;;;;;;12950327;22;20346;-48
2021/05/06 17:12:19;;;;;;;2.45;1.23;;;9.40;99.90;;;;;;12918017;22;20506;-49
2021/05/06 17:17:20;;;;;;;3.10;1.20;;;9.30;99.90;;;;;;12950951;22;20473;-49
2021/05/06 17:22:20;;;;;;;3.15;1.45;;;9.30;99.90;;;;;;12952055;22;20725;-49
2021/05/06 17:27:21;;;;;;;4.60;1.10;;;9.50;99.90;;;;;;12946512;22;20022;-48
2021/05/06 17:32:24;;;;;;;4.20;1.00;;;9.50;99.90;;;;;;12945620;22;20007;-49
2021/05/06 17:37:24;;;;;;;1.85;0.98;;;9.40;99.90;;;;;;12951208;22;20414;-49
2021/05/06 17:42:25;;;;;;;2.47;1.40;;;9.50;99.90;;;;;;12952347;22;20090;-48
2021/05/06 17:47:26;;;;;;;1.88;0.88;;;9.70;99.90;;;;;;12954430;22;20511;-49
2021/05/06 17:52:26;;;;;;;2.97;0.85;;;9.80;99.90;;;;;;12958302;22;20014;-49
2021/05/06 17:57:28;;;;;;;3.25;0.68;;;9.90;99.90;;;;;;12962865;22;20069;-49
2021/05/06 18:02:29;;;;;;;2.97;0.73;;;10.10;99.90;;;;;;12964972;22;20507;-46
2021/05/06 18:07:30;;;;;;;1.65;0.45;;;10.20;99.90;;;;;;12965214;22;20016;-49
2021/05/06 18:12:30;;;;;;;2.75;0.73;;;10.20;99.90;;;;;;12956971;22;20015;-48
2021/05/06 18:17:31;;;;;;;2.53;0.88;;;10.10;99.90;;;;;;12944747;22;20007;-49
2021/05/06 18:22:32;;;;;;;1.77;0.77;;;9.90;99.90;;;;;;12949583;22;20458;-46
2021/05/06 18:27:32;;;;;;;2.53;0.98;;;9.50;99.90;;;;;;12955161;22;20467;-49
2021/05/06 18:32:33;;;;;;;3.60;1.27;;;9.20;99.90;;;;;;12954648;22;24513;-46
2021/05/06 18:37:37;;;;;;;2.97;0.80;;;9.20;99.90;;;;;;12954423;22;20418;-48
2021/05/06 18:42:38;;;;;;;2.80;1.27;;;8.90;99.90;;;;;;12950127;22;20541;-48
2021/05/06 18:47:39;;;;;;;6.18;1.88;;;8.90;99.90;;;;;;12949060;22;20236;-48
2021/05/06 18:52:39;;;;;;;4.70;1.00;;;8.70;99.90;;;;;;12951698;22;20368;-48
2021/05/06 18:57:40;;;;;;;2.67;1.50;;;8.70;99.90;;;;;;12949257;22;20445;-48
2021/05/06 19:02:43;;;;;;;3.15;1.48;;;8.50;99.90;;;;;;12949804;22;20018;-48
2021/05/06 19:07:43;;;;;;;5.90;1.63;;;8.40;99.90;;;;;;12950756;22;20101;-47
2021/05/06 19:12:44;;;;;;;4.35;0.73;;;8.40;99.90;;;;;;12948955;22;20526;-48
2021/05/06 19:17:45;;;;;;;4.13;1.35;;;8.40;99.90;;;;;;12947747;22;20094;-48
2021/05/06 19:22:46;;;;;;;1.05;0.40;;;8.50;99.90;;;;;;12950416;22;20007;-48
2021/05/06 19:27:47;;;;;;;0.82;0.30;;;8.40;99.90;;;;;;12953693;22;20046;-48
2021/05/06 19:32:49;;;;;;;0.40;0.17;;;8.20;99.90;;;;;;12951545;22;20007;-48
2021/05/06 19:37:50;;;;;;;1.88;0.60;;;8.30;99.90;;;;;;12946554;22;20533;-48
2021/05/06 19:42:57;;;;;;;1.83;0.57;;;8.10;99.90;;;;;;12949639;22;20446;-48
2021/05/06 19:47:57;;;;;;;1.25;0.70;;;8.00;99.90;;;;;;12949333;22;20196;-48
2021/05/06 19:52:58;;;;;;;1.83;0.50;;;7.80;99.90;;;;;;12946638;22;20086;-48
2021/05/06 19:57:59;;;;;;;2.35;0.90;;;7.70;99.90;;;;;;12949798;22;20090;-48
2021/05/06 20:02:59;;;;;;;1.00;0.40;;;7.60;99.90;;;;;;12948579;22;20073;-48
2021/05/06 20:08:00;;;;;;;1.48;0.50;;;7.50;99.90;;;;;;12958131;22;20016;-48
2021/05/06 20:13:01;;;;;;;1.58;0.73;;;7.30;99.90;;;;;;12967133;22;20046;-48
2021/05/06 20:18:05;;;;;;;1.67;0.55;;;7.20;99.90;;;;;;12935030;22;20368;-48
2021/05/06 20:23:06;;;;;;;1.67;0.50;;;7.10;99.90;;;;;;12963363;22;20015;-48
2021/05/06 20:28:07;;;;;;;1.27;0.40;;;7.00;99.90;;;;;;12960478;22;20015;-48
2021/05/06 20:33:07;;;;;;;2.80;0.60;;;7.00;99.90;;;;;;12958481;22;20043;-48
2021/05/06 20:38:08;;;;;;;1.38;0.60;;;6.90;99.90;;;;;;12898064;22;20375;-48
2021/05/06 20:43:15;;;;;;;4.00;0.77;;;6.90;99.90;;;;;;12899767;22;20035;-48
2021/05/06 20:48:17;;;;;;;6.25;2.45;;;6.80;99.90;;;;;;12902271;22;20000;-48
2021/05/06 20:53:18;;;;;;;1.27;0.57;;;6.80;99.90;;;;;;12898170;22;20015;-48
2021/05/06 20:58:19;;;;;;;3.17;1.63;;;6.70;99.90;;;;;;12900045;22;20419;-48
2021/05/06 21:03:20;;;;;;;1.63;0.55;;;6.60;99.90;;;;;;12900360;22;20007;-48
2021/05/06 21:08:20;;;;;;;3.35;1.17;;;6.50;99.90;;;;;;12903061;22;20007;-48
2021/05/06 21:13:21;;;;;;;1.80;0.75;;;6.50;99.90;;;;;;12902974;22;20000;-48
2021/05/06 21:18:21;;;;;;;2.47;1.30;;;6.40;99.90;;;;;;12899757;22;20087;-48
2021/05/06 21:23:22;;;;;;;2.55;1.35;;;6.30;99.90;;;;;;12900070;22;20073;-48
2021/05/06 21:28:23;;;;;;;2.15;0.80;;;6.30;99.90;;;;;;12898902;22;20056;-48
2021/05/06 21:33:23;;;;;;;3.67;1.05;;;6.20;99.90;;;;;;12901016;22;20019;-48
2021/05/06 21:38:24;;;;;;;5.63;1.00;;;6.20;99.90;;;;;;12962071;22;20042;-48
2021/05/06 21:43:25;;;;;;;4.00;1.33;;;6.20;99.90;;;;;;12962815;22;20006;-48
2021/05/06 21:48:25;;;;;;;3.92;1.40;;;6.10;99.90;;;;;;12964693;22;20083;-48
2021/05/06 21:53:26;;;;;;;6.05;1.60;;;6.10;99.90;;;;;;12962571;22;20015;-48
2021/05/06 21:58:27;;;;;;;4.72;1.77;;;6.00;99.90;;;;;;12962337;22;20004;-48
2021/05/06 22:03:27;;;;;;;2.92;1.33;;;6.00;99.90;;;;;;12965594;22;20581;-48
2021/05/06 22:08:28;;;;;;;3.75;1.10;;;5.80;99.90;;;;;;12961607;22;20035;-48
2021/05/06 22:13:29;;;;;;;3.88;1.42;;;5.80;99.90;;;;;;12964077;22;20011;-48
2021/05/06 22:18:36;;;;;;;3.17;1.50;;;5.80;99.90;;;;;;12962881;22;20021;-48
2021/05/06 22:23:37;;;;;;;2.83;1.17;;;5.70;99.90;;;;;;12961375;22;20015;-48
2021/05/06 22:28:38;;;;;;;2.92;1.00;;;5.70;99.90;;;;;;12961233;22;20011;-48
2021/05/06 22:33:39;;;;;;;3.33;1.13;;;5.60;99.90;;;;;;12959519;22;20484;-48
2021/05/06 22:38:40;;;;;;;3.47;1.13;;;5.50;99.90;;;;;;12961505;22;20075;-48
2021/05/06 22:43:40;;;;;;;2.47;1.10;;;5.40;99.90;;;;;;12962355;22;20069;-48
2021/05/06 22:48:41;;;;;;;2.78;1.27;;;5.40;99.90;;;;;;12963295;22;20015;-48
2021/05/06 22:53:41;;;;;;;2.92;1.33;;;5.40;99.90;;;;;;12961291;22;20016;-48
2021/05/06 22:58:42;;;;;;;3.15;0.80;;;5.30;99.90;;;;;;12962046;22;20011;-48
2021/05/06 23:03:44;;;;;;;2.80;0.80;;;5.30;99.90;;;;;;12961161;22;20019;-48
2021/05/06 23:08:48;;;;;;;2.08;1.20;;;5.20;99.90;;;;;;12933556;22;20098;-48
2021/05/06 23:13:49;;;;;;;8.68;2.08;;;5.10;99.90;;;;;;12964110;22;20089;-48
2021/05/06 23:18:49;;;;;;;4.53;0.90;;;5.00;99.90;;;;;;12963223;22;20588;-48
2021/05/06 23:23:50;;;;;;;2.50;1.00;;;5.00;99.90;;;;;;12961723;22;20068;-48
2021/05/06 23:28:50;;;;;;;2.58;1.20;;;4.90;99.90;;;;;;12962864;22;20027;-48
2021/05/06 23:33:55;;;;;;;2.28;0.88;;;4.80;99.90;;;;;;12957944;22;20015;-48
2021/05/06 23:38:56;;;;;;;2.28;0.85;;;4.80;99.90;;;;;;12896024;22;20008;-48
2021/05/06 23:43:56;;;;;;;2.67;1.08;;;4.70;99.90;;;;;;12899911;22;20012;-48
2021/05/06 23:48:57;;;;;;;2.35;1.02;;;4.60;99.90;;;;;;12898133;22;20426;-48
2021/05/06 23:53:58;;;;;;;3.10;1.45;;;4.60;99.90;;;;;;12896297;22;20020;-48
2021/05/06 23:58:58;;;;;;;2.70;1.63;;;4.50;99.90;;;;;;12898718;22;20016;-48
